»·PEaware :: N19063 L88-KSBP

N19063 :: L88-KSBP

FLIGHT INFORMATION

Flight Status: Arrived
Operator: Privately registered:
United States
More flights under this callsign
Pilot: Austin L. (19194)
Aircraft: CESSNA 172 SKYHAWK
(C172)
More flights by this aircraft type
Origin: L88 New Cuyama
United States
Destination: KSBP San Luis Co Regl
United States
More flights between these airports :: More routes between these airports
Route: L88 KSBP
File this flight plan on PilotEdge
Remarks: Direct
Altitude:
(Current/Filed)
6,500ft
Speed:
(Current/Filed)
120kts
Departed: 16-May-18 05:01 PM
Arrived: 16-May-18 05:33 PM
Distance/Time
Traveled:
50nm/0:32
Distance/Time
To Go:
Arrived

Flight Plot

Page will automatically refresh every two minutes.


Map Options




Map Legend


Flown Route
Filed Route
Departure Airport
Arrival Airport
Navaid (VOR, NDB)
Fix

Horizontal Profiles

Position Reports

Time Latitude Longitude Heading Altitude Ground
Speed
16-May-18 16:40 34.942856 -119.690285 204 2156ft 0kts
16-May-18 16:41 34.942856 -119.690285 204 2156ft 0kts
16-May-18 16:42 34.942856 -119.690285 204 2156ft 0kts
16-May-18 16:43 34.942856 -119.690285 204 2156ft 0kts
16-May-18 16:44 34.942856 -119.690285 204 2156ft 0kts
16-May-18 16:45 34.942856 -119.690285 204 2156ft 0kts
16-May-18 16:46 34.942856 -119.690285 204 2156ft 0kts
16-May-18 16:47 34.942856 -119.690285 204 2156ft 0kts
16-May-18 16:48 34.942856 -119.690285 204 2156ft 0kts
16-May-18 16:49 34.942856 -119.690285 204 2156ft 0kts
16-May-18 16:50 34.942856 -119.690285 204 2156ft 0kts
16-May-18 16:51 34.942856 -119.690285 204 2156ft 0kts
16-May-18 16:52 34.942856 -119.690285 204 2156ft 0kts
16-May-18 16:53 34.942856 -119.690285 204 2156ft 0kts
16-May-18 16:54 34.942856 -119.690285 204 2156ft 0kts
16-May-18 16:55 34.942953 -119.691082 214 2155ft 0kts
16-May-18 16:56 34.942953 -119.691082 214 2155ft 0kts
16-May-18 16:57 34.942953 -119.691082 214 2155ft 0kts
16-May-18 16:58 34.942953 -119.691082 214 2155ft 0kts
16-May-18 16:59 34.940111 -119.685868 115 2175ft 36kts
16-May-18 17:00 34.937742 -119.680091 301 2200ft 0kts
16-May-18 17:01 34.944002 -119.693608 303 2629ft 75kts
16-May-18 17:02 34.951515 -119.716386 288 3597ft 72kts
16-May-18 17:03 34.958062 -119.739558 292 4468ft 73kts
16-May-18 17:04 34.964452 -119.763108 288 5307ft 73kts
16-May-18 17:05 34.971467 -119.786394 289 6098ft 73kts
16-May-18 17:06 34.979588 -119.812253 290 6501ft 99kts
16-May-18 17:07 34.990172 -119.845471 289 6499ft 107kts
16-May-18 17:08 35.000796 -119.879244 289 6499ft 106kts
16-May-18 17:09 35.011363 -119.912943 289 6499ft 106kts
16-May-18 17:10 35.021920 -119.946653 289 6499ft 106kts
16-May-18 17:11 35.032444 -119.980299 289 6499ft 106kts
16-May-18 17:12 35.042980 -120.014019 289 6501ft 105kts
16-May-18 17:13 35.053392 -120.047383 289 6508ft 104kts
16-May-18 17:14 35.061983 -120.074939 288 6513ft 104kts
16-May-18 17:15 35.072225 -120.107829 288 6519ft 103kts
16-May-18 17:16 35.082394 -120.140519 288 6523ft 102kts
16-May-18 17:17 35.092455 -120.172902 287 6527ft 101kts
16-May-18 17:18 35.102320 -120.204682 287 6533ft 101kts
16-May-18 17:19 35.112260 -120.236752 287 6536ft 100kts
16-May-18 17:20 35.122133 -120.268635 287 6537ft 100kts
16-May-18 17:21 35.132008 -120.300569 288 6536ft 100kts
16-May-18 17:22 35.142008 -120.332904 288 6499ft 102kts
16-May-18 17:23 35.151947 -120.365090 288 6498ft 101kts
16-May-18 17:24 35.161859 -120.397236 288 6498ft 101kts
16-May-18 17:25 35.171751 -120.429339 289 6498ft 101kts
16-May-18 17:26 35.181663 -120.461551 289 6498ft 101kts
16-May-18 17:27 35.191872 -120.491836 294 6020ft 91kts
16-May-18 17:28 35.198438 -120.523299 290 4342ft 102kts
16-May-18 17:29 35.199672 -120.556013 262 2828ft 103kts
16-May-18 17:30 35.205188 -120.585177 308 1645ft 85kts
16-May-18 17:31 35.217987 -120.607225 308 1040ft 75kts
16-May-18 17:32 35.227764 -120.624361 307 507ft 55kts
16-May-18 17:33 35.235151 -120.636941 347 203ft 16kts
16-May-18 17:34 35.235654 -120.636158 313 206ft 11kts
16-May-18 17:35 35.236551 -120.637710 301 200ft 0kts
16-May-18 17:36 35.238285 -120.637554 277 200ft 7kts
16-May-18 17:37 35.237926 -120.637698 92 200ft 0kts
16-May-18 17:38 35.237925 -120.637704 80 200ft 0kts

Navigation Log

Ident Type
1. L88 Airport
2. KSBP Airport